Latest Coastal Weather Observations for Ballina

IDN60701

Issued at 4:31 am EST Tuesday 28 June 2022 (issued every 10 minutes, with the page automatically refreshed every 10 minutes)

About coastal observations | Map of coastal stations | Coastal observations for NSW | Marine services | Other Formats
Station Details ID: 058198 Name: BALLINA AIRPORT AWS Lat: -28.84 Lon: 153.56 Height: 1.3 m
Data from the previous 72 hours. | See also: Recent months at Ballina
Date/Time
EST
Wind Sea
Height
m
Swell Vis
km
Cloud Weather Temp
°C
Press
MSL
hPa
Rain since
9am
mm
Dir  Spd
kts
Gust
kts
Height
m
Period
s
Dir
28/04:30am WSW 11 17 - - - - 10 Partly cloudy - 12.2 1023.9 0.0
28/04:00am WSW 11 15 - - - - 10 Partly cloudy - 12.8 1024.0 0.0
28/03:30am WSW 11 15 - - - - 10 Partly cloudy - 12.9 1024.0 0.0
28/03:00am WSW 11 15 - - - - 10 Cloudy - 12.8 1024.0 0.0
28/02:30am WSW 11 17 - - - - 10 Partly cloudy - 13.0 1024.0 0.0
28/02:00am SW 13 18 - - - - 10 Partly cloudy - 13.2 1023.9 0.0
28/01:30am SW 13 18 - - - - 10 Partly cloudy - 13.3 1024.0 0.0
28/01:00am SW 13 19 - - - - 10 Partly cloudy - 13.8 1024.2 0.0
28/12:30am SW 13 19 - - - - 10 Cloudy - 14.1 1024.2 0.0
28/12:00am SW 12 18 - - - - 10 Cloudy - 14.1 1024.3 0.0
 
Date/Time
EST
Wind Sea
Height
m
Swell Vis
km
Cloud Weather Temp
°C
Press
MSL
hPa
Rain since
9am
mm
Dir  Spd
kts
Gust
kts
Height
m
Period
s
Dir
27/11:30pm SW 14 21 - - - - 10 Partly cloudy - 14.7 1024.3 0.0
27/11:00pm SW 13 21 - - - - 10 Partly cloudy - 15.1 1024.4 0.0
27/10:33pm SSW 16 26 - - - - 10 Partly cloudy - 16.0 1024.4 0.0
27/10:30pm SSW 17 26 - - - - 10 Partly cloudy - 16.1 1024.4 0.0
27/10:08pm S 17 27 - - - - 10 Partly cloudy - 16.3 1024.2 0.0
27/10:00pm S 19 27 - - - - 10 Partly cloudy - 16.3 1024.1 0.0
27/09:30pm S 21 32 - - - - 10 - - 16.6 1023.7 0.0
27/09:00pm S 20 30 - - - - 10 - - 17.2 1023.3 0.0
27/08:30pm S 19 29 - - - - 10 Partly cloudy - 17.4 1023.4 0.0
27/08:00pm S 16 27 - - - - 10 Partly cloudy - 17.8 1023.2 0.0
27/07:37pm S 15 25 - - - - 10 - - 17.7 1023.0 0.0
27/07:30pm S 13 22 - - - - 10 - - 17.5 1023.1 0.0
27/07:00pm S 14 20 - - - - 10 Partly cloudy - 17.6 1022.8 0.0
27/06:30pm SSE 13 21 - - - - 10 Partly cloudy - 17.9 1022.4 0.0
27/06:00pm S 11 17 - - - - 10 Cloudy - 17.7 1022.0 0.0
27/05:30pm S 7 11 - - - - 10 Partly cloudy - 16.8 1021.7 0.0
27/05:00pm S 7 11 - - - - 10 - - 16.7 1021.5 0.0
27/04:30pm SSE 7 12 - - - - 10 - - 17.9 1021.1 0.0
27/04:00pm SSE 10 15 - - - - 10 - - 18.6 1020.8 0.0
27/03:30pm SSE 12 16 - - - - 10 - - 19.0 1020.6 0.0
27/03:00pm S 11 15 - - - - 10 - - 19.2 1020.7 0.0
27/02:30pm S 13 20 - - - - 10 - - 19.4 1020.8 0.0
27/02:00pm SSW 11 17 - - - - 10 - - 20.0 1020.7 0.0
27/01:30pm SSW 11 18 - - - - 10 - - 19.7 1020.7 0.0
27/01:00pm SSW 11 15 - - - - 10 - - 19.7 1020.8 0.0
27/12:30pm SSW 11 17 - - - - 10 - - 19.5 1021.4 0.0
27/12:00pm SSW 9 13 - - - - 10 - - 19.3 1021.8 0.0
27/11:30am SW 12 18 - - - - 10 - - 19.1 1022.3 0.0
27/11:00am SW 15 19 - - - - 10 - - 18.6 1022.4 0.0
27/10:30am W 10 13 - - - - 10 - - 18.9 1022.2 0.0
27/10:00am W 12 17 - - - - 10 - - 18.0 1022.8 0.0
27/09:30am W 7 10 - - - - 10 - - 16.1 1023.0 0.0
27/09:00am WNW 7 10 - - - - 10 Partly cloudy - 14.8 1022.6 0.0
27/08:30am W 5 6 - - - - 10 - - 13.1 1022.7 0.0
27/08:00am N 1 3 - - - - 10 - - 11.1 1022.8 0.0
27/07:30am NNW 2 3 - - - - 10 - - 9.8 1022.8 0.0
27/07:00am CALM 0 3 - - - - 10 - - 8.3 1023.1 0.0
27/06:30am CALM 0 0 - - - - 10 - - 7.8 1023.0 0.0
27/06:00am CALM 0 0 - - - - 10 Partly cloudy - 7.2 1022.8 0.0
27/05:30am CALM 0 0 - - - - 10 - - 7.7 1022.8 0.0
27/05:00am CALM 0 0 - - - - 10 - - 7.3 1022.5 0.0
27/04:30am CALM 0 0 - - - - 10 - - 7.1 1022.7 0.0
27/04:00am CALM 0 0 - - - - 10 - - 7.1 1022.7 0.0
27/03:30am CALM 0 2 - - - - 10 - - 7.1 1023.1 0.0
27/03:11am CALM 0 0 - - - - 10 - - 7.1 1023.1 0.0
27/03:00am NNE 1 4 - - - - 3 - - 7.3 1023.3 0.0
27/02:30am CALM 0 0 - - - - 0.5 - - 7.3 1023.4 0.0
27/02:00am CALM 0 0 - - - - 0.3 Partly cloudy - 8.1 1023.4 0.0
27/01:30am CALM 0 0 - - - - 1 - - 8.0 1023.8 0.0
27/01:00am CALM 0 0 - - - - 1 - - 9.1 1023.8 0.0
27/12:33am CALM 0 0 - - - - 5 - - 8.8 1024.2 0.0
27/12:30am CALM 0 0 - - - - 7 - - 8.8 1024.2 0.0
27/12:19am CALM 0 0 - - - - 10 - - 8.7 1024.1 0.0
27/12:00am CALM 0 4 - - - - 0.5 - - 9.2 1024.4 0.0
 
Date/Time
EST
Wind Sea
Height
m
Swell Vis
km
Cloud Weather Temp
°C
Press
MSL
hPa
Rain since
9am
mm
Dir  Spd
kts
Gust
kts
Height
m
Period
s
Dir
26/11:37pm CALM 0 0 - - - - 4 - - 9.6 1024.5 0.0
26/11:30pm CALM 0 0 - - - - 10 - - 10.3 1024.6 0.0
26/11:00pm CALM 0 0 - - - - 10 - - 10.4 1024.7 0.0
26/10:33pm CALM 0 0 - - - - 10 - - 10.3 1024.7 0.0
26/10:30pm CALM 0 0 - - - - 10 - - 10.2 1024.6 0.0
26/10:00pm CALM 0 0 - - - - 1 - - 10.1 1024.7 0.0
26/09:30pm CALM 0 0 - - - - 3 - - 10.2 1024.6 0.0
26/09:26pm CALM 0 0 - - - - 4 - - 9.8 1024.5 0.0
26/09:14pm CALM 0 0 - - - - 10 - - 10.9 1024.6 0.0
26/09:00pm CALM 0 0 - - - - 0.5 - - 10.8 1024.4 0.0
26/08:30pm CALM 0 0 - - - - 5 - - 11.3 1024.5 0.0
26/08:14pm CALM 0 0 - - - - 5 - - 11.4 1024.5 0.0
26/08:00pm CALM 0 0 - - - - 10 - - 11.3 1024.5 0.0
26/07:30pm CALM 0 0 - - - - 10 - - 11.8 1024.5 0.0
26/07:13pm CALM 0 0 - - - - 10 - - 12.3 1024.4 0.0
26/07:00pm CALM 0 0 - - - - 4 - - 11.8 1024.3 0.0
26/06:55pm CALM 0 0 - - - - 5 - - 11.8 1024.3 0.0
26/06:30pm CALM 0 0 - - - - 10 - - 12.9 1024.0 0.0
26/06:00pm NNE 1 4 - - - - 10 - - 13.5 1023.7 0.0
26/05:30pm CALM 0 3 - - - - 10 - - 14.6 1023.5 0.0
26/05:00pm CALM 0 0 - - - - 10 - - 16.9 1023.3 0.0
26/04:30pm ESE 5 5 - - - - 10 - - 17.9 1023.3 0.0
26/04:00pm ESE 5 7 - - - - 10 - - 19.1 1023.3 0.0
26/03:30pm E 6 8 - - - - 10 - - 19.7 1023.2 0.0
26/03:00pm E 5 7 - - - - 10 Mostly clear - 19.4 1023.1 0.0
26/02:30pm E 6 8 - - - - 10 - - 20.1 1023.3 0.0
26/02:00pm ESE 4 7 - - - - 10 Partly cloudy - 20.2 1023.3 0.0
26/01:30pm SE 6 8 - - - - 10 Partly cloudy - 19.9 1023.4 0.0
26/01:00pm SE 4 7 - - - - 10 Partly cloudy - 19.7 1023.6 0.0
26/12:30pm S 3 5 - - - - 10 Partly cloudy - 19.8 1023.8 0.0
26/12:00pm SSE 4 6 - - - - 10 Partly cloudy - 20.0 1024.4 0.0
26/11:30am ENE 1 3 - - - - 10 - - 21.1 1024.8 0.0
26/11:00am WNW 4 6 - - - - 10 - - 20.2 1025.1 0.0
26/10:30am W 5 7 - - - - 10 - - 19.3 1025.3 0.0
26/10:00am W 6 8 - - - - 10 - - 17.9 1025.3 0.0
26/09:30am W 6 8 - - - - 10 - - 16.8 1025.5 0.0
26/09:00am WNW 4 8 - - - - 10 - - 15.0 1025.6 0.0
26/08:30am CALM 0 0 - - - - 10 - - 13.0 1025.6 0.0
26/08:00am CALM 0 0 - - - - 10 - - 11.4 1025.6 0.0
26/07:30am CALM 0 3 - - - - 10 - - 9.0 1025.6 0.0
26/07:27am WSW 1 3 - - - - 10 - - 8.4 1025.5 0.0
26/07:09am CALM 0 0 - - - - 5 - - 6.5 1025.3 0.0
26/07:00am CALM 0 0 - - - - 10 - - 6.6 1025.2 0.0
26/06:30am CALM 0 3 - - - - 10 - - 6.0 1025.1 0.0
26/06:16am WSW 2 3 - - - - 10 - - 6.8 1024.9 0.0
26/06:00am CALM 0 0 - - - - 1 - - 7.1 1024.8 0.0
26/05:30am CALM 0 0 - - - - 6 - - 7.4 1024.4 0.0
26/05:12am CALM 0 0 - - - - 5 - - 7.3 1024.3 0.0
26/05:05am CALM 0 0 - - - - 10 - - 6.9 1024.1 0.0
26/05:00am CALM 0 0 - - - - 10 - - 7.5 1024.0 0.0
26/04:30am CALM 0 0 - - - - 0.6 - - 7.3 1023.6 0.0
26/04:00am CALM 0 0 - - - - 2 - - 7.7 1023.7 0.0
26/03:54am CALM 0 0 - - - - 5 - - 8.1 1023.6 0.0
26/03:44am CALM 0 0 - - - - 10 - - 7.7 1023.6 0.0
26/03:30am CALM 0 0 - - - - 2 - - 8.3 1023.6 0.0
26/03:00am CALM 0 0 - - - - 0.4 - - 7.6 1023.8 0.0
26/02:30am CALM 0 0 - - - - 0.6 - - 7.3 1023.8 0.0
26/02:22am CALM 0 0 - - - - 3 - - 7.7 1023.8 0.0
26/02:11am CALM 0 0 - - - - 10 - - 8.1 1023.8 0.0
26/02:00am CALM 0 0 - - - - 5 - - 8.6 1023.8 0.0
26/01:58am CALM 0 0 - - - - 5 Partly cloudy - 8.3 1023.8 0.0
26/01:37am CALM 0 0 - - - - 10 Partly cloudy - 8.1 1023.8 0.0
26/01:30am CALM 0 0 - - - - 10 - - 8.2 1023.8 0.0
26/01:18am CALM 0 0 - - - - 4 - - 8.4 1023.8 0.0
26/01:00am CALM 0 0 - - - - 10 - - 8.5 1023.9 0.0
26/12:58am CALM 0 0 - - - - 10 - - 8.8 1023.9 0.0
26/12:30am CALM 0 0 - - - - 4 - - 9.3 1023.7 0.0
26/12:06am CALM 0 0 - - - - 4 Partly cloudy - 8.3 1023.9 0.0
26/12:00am SSE 1 4 - - - - 10 Mostly clear - 8.6 1024.0 0.0
 
Date/Time
EST
Wind Sea
Height
m
Swell Vis
km
Cloud Weather Temp
°C
Press
MSL
hPa
Rain since
9am
mm
Dir  Spd
kts
Gust
kts
Height
m
Period
s
Dir
25/11:30pm CALM 0 0 - - - - 10 Partly cloudy - 9.1 1024.2 0.0
25/11:00pm CALM 0 0 - - - - 10 - - 8.6 1024.3 0.0
25/10:30pm WSW 1 5 - - - - 10 - - 10.2 1024.4 0.0
25/10:00pm CALM 0 0 - - - - 10 - - 9.4 1024.2 0.0
25/09:30pm CALM 0 0 - - - - 10 - - 9.4 1024.2 0.0
25/09:00pm CALM 0 0 - - - - 10 - - 10.0 1024.1 0.0
25/08:30pm CALM 0 0 - - - - 10 - - 10.2 1024.0 0.0
25/08:00pm CALM 0 0 - - - - 10 - - 11.0 1023.8 0.0
25/07:30pm CALM 0 0 - - - - 10 - - 11.1 1023.5 0.0
25/07:00pm CALM 0 0 - - - - 10 - - 12.3 1023.1 0.0
25/06:30pm WSW 3 5 - - - - 10 - - 13.0 1022.8 0.0
25/06:00pm WSW 4 5 - - - - 10 - - 12.9 1022.4 0.0
25/05:30pm SW 4 5 - - - - 10 - - 14.4 1022.1 0.0
25/05:00pm WSW 4 5 - - - - 10 - - 16.7 1022.0 0.0
25/04:30pm SW 6 8 - - - - 10 - - 18.2 1021.8 0.0
25/04:00pm SSW 7 10 - - - - 10 - - 18.8 1021.8 0.0
25/03:30pm SSW 6 8 - - - - 10 - - 19.0 1021.7 0.0
25/03:00pm SSW 7 11 - - - - 10 - - 19.1 1021.5 0.0
25/02:30pm S 8 11 - - - - 10 - - 19.6 1021.4 0.0
25/02:00pm S 9 13 - - - - 10 - - 20.3 1021.2 0.0
25/01:30pm S 8 11 - - - - 10 - - 20.3 1021.2 0.0
25/01:00pm SSW 7 11 - - - - 10 - - 20.1 1021.5 0.0
25/12:30pm SSW 8 13 - - - - 10 - - 19.9 1021.7 0.0
25/12:00pm SW 8 12 - - - - 10 - - 19.6 1022.0 0.0
25/11:30am SW 9 12 - - - - 10 - - 19.1 1022.3 0.0
25/11:00am WSW 9 12 - - - - 10 - - 18.8 1022.5 0.0
25/10:30am WSW 9 11 - - - - 10 - - 18.5 1022.8 0.0
25/10:00am SW 9 12 - - - - 10 - - 17.6 1022.8 0.0
25/09:30am WSW 8 13 - - - - 10 - - 16.7 1022.9 0.0
25/09:00am W 9 11 - - - - 10 - - 15.4 1022.9 0.0
25/08:30am W 6 8 - - - - 10 - - 14.5 1022.7 0.0
25/08:00am W 3 5 - - - - 10 - - 11.6 1022.5 0.0
25/07:30am W 1 4 - - - - 10 - - 8.6 1022.1 0.0
25/07:00am CALM 0 0 - - - - 10 - - 5.9 1021.8 0.0
25/06:30am CALM 0 0 - - - - 10 - - 5.2 1021.5 0.0
25/06:00am CALM 0 0 - - - - 10 - - 5.7 1021.1 0.0
25/05:30am CALM 0 0 - - - - 10 - - 6.4 1020.8 0.0
25/05:00am WSW 5 7 - - - - 10 - - 8.1 1020.5 0.0

Other formats

Comma delimited format used in spreadsheet applications
http://www.bom.gov.au/fwo/IDN60701/IDN60701.94596.axf

JavaScript Object Notation format (JSON) in row-major order
http://www.bom.gov.au/fwo/IDN60701/IDN60701.94596.json

Data quality

Most of these data are generated automatically and are frequently updated. Quality checks on data are not normally performed. It is possible for incorrect values to appear. Refer to information at About Latest Weather Observations and please check the disclaimer before using these data.